createdAt,value
2023-01-08T01:24:07.359Z,542.00
2023-01-08T01:25:07.374Z,545.00
2023-01-08T01:26:07.412Z,552.00
2023-01-08T01:27:07.435Z,548.00
2023-01-08T01:28:07.485Z,548.00
2023-01-08T01:35:07.310Z,546.00
2023-01-08T01:36:07.280Z,545.00
2023-01-08T01:37:07.230Z,545.00
2023-01-08T01:38:07.192Z,545.00
2023-01-08T01:39:07.153Z,549.00
2023-01-08T01:40:07.117Z,549.00
2023-01-08T01:41:07.091Z,554.00
2023-01-08T01:42:07.056Z,551.00
2023-01-08T01:43:07.031Z,549.00
2023-01-08T01:44:06.990Z,554.00
2023-01-08T01:45:06.947Z,547.00
2023-01-08T01:46:06.965Z,555.00
2023-01-08T01:47:06.870Z,551.00
2023-01-08T01:48:06.830Z,554.00
2023-01-08T01:49:06.882Z,553.00
2023-01-08T01:50:06.768Z,550.00
2023-01-08T01:51:06.731Z,548.00
2023-01-08T01:52:06.701Z,550.00
2023-01-08T01:53:06.662Z,553.00
2023-01-08T01:54:06.640Z,549.00
2023-01-08T01:55:06.596Z,545.00
2023-01-08T01:56:06.566Z,546.00
2023-01-08T01:57:06.528Z,545.00
2023-01-08T01:58:06.519Z,543.00
2023-01-08T01:59:06.458Z,547.00
2023-01-08T02:00:06.433Z,549.00
2023-01-08T02:01:06.414Z,542.00
2023-01-08T02:02:06.470Z,549.00
2023-01-08T02:03:06.290Z,549.00
2023-01-08T02:04:06.304Z,549.00
2023-01-08T02:05:06.333Z,542.00
2023-01-08T02:06:06.188Z,546.00
2023-01-08T02:07:06.154Z,550.00
2023-01-08T02:08:06.103Z,551.00
2023-01-08T02:09:06.075Z,550.00
2023-01-08T02:10:06.023Z,544.00
2023-01-08T02:11:05.979Z,540.00
2023-01-08T02:12:05.953Z,550.00
2023-01-08T02:13:05.916Z,542.00
2023-01-08T02:14:05.886Z,536.00
2023-01-08T02:15:05.815Z,551.00
2023-01-08T02:16:05.783Z,549.00
2023-01-08T02:17:05.838Z,546.00
2023-01-08T02:18:05.709Z,549.00
2023-01-08T02:19:05.662Z,546.00
2023-01-08T02:20:05.625Z,536.00
2023-01-08T02:21:05.668Z,542.00
2023-01-08T02:22:05.531Z,543.00
2023-01-08T02:23:05.496Z,544.00
2023-01-08T02:24:05.455Z,545.00
2023-01-08T02:25:05.415Z,551.00
2023-01-08T02:26:05.372Z,541.00
2023-01-08T02:27:05.340Z,551.00
2023-01-08T02:28:05.293Z,540.00
2023-01-08T02:29:05.286Z,546.00
2023-01-08T02:30:05.196Z,545.00
2023-01-08T02:31:05.227Z,533.00
2023-01-08T02:32:05.123Z,533.00
2023-01-08T02:33:05.061Z,544.00
2023-01-08T02:34:05.031Z,538.00
2023-01-08T02:35:04.992Z,534.00
2023-01-08T02:36:04.932Z,541.00
2023-01-08T02:37:04.966Z,548.00
2023-01-08T02:38:04.846Z,540.00
2023-01-08T02:39:04.796Z,541.00
2023-01-08T02:40:04.776Z,543.00
2023-01-08T02:41:04.720Z,536.00
2023-01-08T02:42:04.661Z,536.00
2023-01-08T02:43:04.629Z,541.00
2023-01-08T02:44:04.567Z,549.00
2023-01-08T02:45:04.531Z,542.00
2023-01-08T02:46:04.502Z,538.00
2023-01-08T02:47:04.440Z,538.00
2023-01-08T02:48:04.401Z,542.00
2023-01-08T02:49:04.365Z,541.00
2023-01-08T02:50:04.336Z,544.00
2023-01-08T02:51:04.274Z,540.00
2023-01-08T02:52:04.250Z,537.00
2023-01-08T02:53:04.274Z,536.00
2023-01-08T02:54:04.145Z,545.00
2023-01-08T02:55:04.106Z,546.00
2023-01-08T02:56:04.058Z,533.00
2023-01-08T02:57:04.027Z,533.00
2023-01-08T02:58:03.971Z,528.00
2023-01-08T02:59:03.918Z,543.00
2023-01-08T03:00:03.884Z,538.00
2023-01-08T03:01:03.869Z,548.00
2023-01-08T03:02:03.961Z,544.00
2023-01-08T03:03:03.749Z,542.00
2023-01-08T03:04:03.790Z,544.00
2023-01-08T03:05:03.670Z,534.00
2023-01-08T03:06:03.647Z,544.00
2023-01-08T03:07:03.590Z,539.00
2023-01-08T03:08:03.547Z,547.00
2023-01-08T03:09:03.593Z,541.00
2023-01-08T03:10:03.477Z,533.00
2023-01-08T03:11:03.440Z,541.00
2023-01-08T03:12:03.385Z,533.00
2023-01-08T03:13:03.351Z,542.00
2023-01-08T03:14:03.319Z,540.00
2023-01-08T03:15:03.290Z,545.00
2023-01-08T03:16:03.239Z,547.00
2023-01-08T03:17:03.265Z,544.00
2023-01-08T03:18:03.193Z,543.00
2023-01-08T03:19:03.162Z,539.00
2023-01-08T03:20:03.132Z,546.00
2023-01-08T03:21:03.473Z,548.00
2023-01-08T03:22:03.057Z,545.00
2023-01-08T03:23:03.139Z,538.00
2023-01-08T03:24:02.998Z,539.00
2023-01-08T03:25:03.550Z,539.00
2023-01-08T05:01:59.468Z,520.00
2023-01-08T05:02:59.422Z,515.00
2023-01-08T05:03:59.287Z,521.00
2023-01-08T05:04:59.234Z,529.00
2023-01-08T05:05:59.202Z,515.00
2023-01-08T05:06:59.171Z,520.00
2023-01-08T05:07:59.128Z,514.00
2023-01-08T05:08:59.079Z,513.00
2023-01-08T05:09:59.034Z,521.00
2023-01-08T05:10:59.000Z,526.00
2023-01-08T05:11:58.947Z,527.00
2023-01-08T05:12:58.936Z,523.00
2023-01-08T05:13:58.871Z,520.00
2023-01-08T05:14:58.837Z,523.00
2023-01-08T05:15:58.829Z,518.00
2023-01-08T05:16:58.835Z,522.00
2023-01-08T05:17:58.731Z,518.00
2023-01-08T05:18:58.681Z,522.00
2023-01-08T05:19:58.652Z,522.00
2023-01-08T05:20:58.667Z,510.00
2023-01-08T05:21:58.616Z,512.00
2023-01-08T05:22:58.666Z,520.00
2023-01-08T05:23:58.596Z,520.00
2023-01-08T05:24:58.547Z,516.00
2023-01-08T05:25:58.426Z,511.00
2023-01-08T05:26:58.412Z,505.00
2023-01-08T05:27:58.349Z,509.00
2023-01-08T05:28:58.322Z,511.00
2023-01-08T05:29:58.279Z,511.00
2023-01-08T05:30:58.301Z,522.00
2023-01-08T05:31:58.213Z,524.00
2023-01-08T05:32:58.268Z,516.00
2023-01-08T05:33:58.148Z,509.00
2023-01-08T05:34:58.125Z,520.00
2023-01-08T05:35:58.099Z,513.00
2023-01-08T05:36:58.121Z,517.00
2023-01-08T05:37:58.129Z,517.00
2023-01-08T05:38:58.140Z,504.00
2023-01-08T05:39:57.963Z,511.00
2023-01-08T05:40:57.920Z,511.00
2023-01-08T05:41:57.869Z,512.00
2023-01-08T05:42:57.873Z,513.00
2023-01-08T05:43:57.805Z,511.00
2023-01-08T05:44:57.766Z,520.00
2023-01-08T05:45:57.745Z,517.00
2023-01-08T05:46:57.698Z,517.00
2023-01-08T05:47:57.668Z,509.00
2023-01-08T05:48:57.726Z,507.00
2023-01-08T05:49:57.605Z,519.00
2023-01-08T05:50:57.567Z,501.00
2023-01-08T05:51:57.532Z,517.00
2023-01-08T05:52:57.504Z,501.00
2023-01-08T05:53:57.474Z,507.00
2023-01-08T05:54:57.441Z,516.00
2023-01-08T05:55:57.406Z,511.00
2023-01-08T05:56:57.409Z,521.00
2023-01-08T05:57:57.341Z,508.00
2023-01-08T05:58:57.309Z,511.00
2023-01-08T05:59:57.280Z,501.00
2023-01-08T06:00:57.231Z,512.00
2023-01-08T06:01:57.207Z,523.00
2023-01-08T06:02:57.262Z,516.00
2023-01-08T06:03:57.192Z,521.00
2023-01-08T06:04:57.112Z,518.00
2023-01-08T06:05:57.078Z,508.00
2023-01-08T06:06:57.047Z,511.00
2023-01-08T06:07:57.015Z,518.00
2023-01-08T06:08:56.992Z,520.00
2023-01-08T06:09:56.953Z,520.00
2023-01-08T06:10:56.922Z,522.00
2023-01-08T06:11:56.878Z,521.00
2023-01-08T06:12:56.849Z,519.00
2023-01-08T06:13:56.830Z,519.00
2023-01-08T06:14:56.790Z,525.00
2023-01-08T06:15:56.758Z,511.00
2023-01-08T06:16:56.735Z,513.00
2023-01-08T06:17:56.701Z,514.00
2023-01-08T06:18:56.676Z,515.00
2023-01-08T06:19:56.634Z,523.00
2023-01-08T06:20:56.699Z,523.00
2023-01-08T06:21:56.626Z,530.00
2023-01-08T06:22:56.530Z,523.00
2023-01-08T06:23:56.498Z,527.00
2023-01-08T06:24:56.464Z,525.00
2023-01-08T06:25:56.437Z,516.00
2023-01-08T06:26:56.398Z,524.00
2023-01-08T06:27:56.357Z,523.00
2023-01-08T06:28:56.369Z,511.00
2023-01-08T06:29:56.297Z,519.00
2023-01-08T06:30:56.350Z,507.00
2023-01-08T06:31:56.234Z,522.00
2023-01-08T06:32:56.200Z,516.00
2023-01-08T06:33:56.176Z,519.00
2023-01-08T06:34:56.124Z,523.00
2023-01-08T06:35:56.101Z,520.00
2023-01-08T06:36:56.150Z,514.00
2023-01-08T06:37:56.055Z,523.00
2023-01-08T06:38:56.021Z,511.00
2023-01-08T06:39:55.952Z,522.00
2023-01-08T06:40:55.921Z,522.00
2023-01-08T06:41:55.880Z,524.00
2023-01-08T06:42:55.851Z,517.00
2023-01-08T06:43:55.838Z,524.00
2023-01-08T06:44:55.789Z,524.00
2023-01-08T06:45:55.754Z,527.00
2023-01-08T06:46:55.772Z,528.00
2023-01-08T06:47:55.677Z,518.00
2023-01-08T06:48:55.640Z,523.00
2023-01-08T06:49:55.611Z,512.00
2023-01-08T06:50:55.579Z,519.00
2023-01-08T06:51:55.555Z,512.00
2023-01-08T06:52:55.576Z,518.00
2023-01-08T06:53:55.465Z,523.00
2023-01-08T06:54:55.439Z,530.00
2023-01-08T06:55:55.395Z,523.00
2023-01-08T06:56:55.378Z,528.00
2023-01-08T06:57:55.361Z,522.00
2023-01-08T06:58:55.320Z,533.00
2023-01-08T06:59:55.287Z,534.00
2023-01-08T07:00:55.276Z,525.00
2023-01-08T07:01:55.377Z,530.00
2023-01-08T07:02:55.402Z,537.00
2023-01-08T07:03:55.175Z,523.00
2023-01-08T07:04:55.148Z,522.00
2023-01-08T07:05:55.122Z,526.00
2023-01-08T07:06:55.096Z,529.00
2023-01-08T07:07:55.080Z,523.00
2023-01-08T07:08:55.139Z,522.00
2023-01-08T07:09:55.027Z,530.00
2023-01-08T07:10:54.976Z,529.00
2023-01-08T07:11:54.961Z,527.00
2023-01-08T07:12:54.942Z,531.00
2023-01-08T07:13:54.933Z,531.00
2023-01-08T07:14:54.910Z,521.00
2023-01-08T07:15:54.928Z,528.00
2023-01-08T07:16:54.865Z,511.00
2023-01-08T07:17:54.845Z,522.00
2023-01-08T07:18:54.818Z,519.00
2023-01-08T07:19:54.808Z,512.00
2023-01-08T07:20:54.809Z,518.00
2023-01-08T07:21:54.778Z,524.00
2023-01-08T07:22:54.745Z,526.00
2023-01-08T07:23:54.723Z,516.00
2023-01-08T07:24:54.783Z,536.00
2023-01-08T07:25:54.682Z,536.00
2023-01-08T07:26:54.655Z,537.00
2023-01-08T07:27:54.648Z,527.00
2023-01-08T07:28:54.623Z,527.00
2023-01-08T07:29:54.634Z,528.00
2023-01-08T07:30:54.616Z,530.00
2023-01-08T07:31:54.556Z,529.00
2023-01-08T07:32:54.546Z,532.00
2023-01-08T07:33:54.525Z,527.00
2023-01-08T07:34:54.510Z,530.00
2023-01-08T07:35:54.499Z,529.00
2023-01-08T07:36:54.467Z,535.00
2023-01-08T07:37:54.462Z,535.00
2023-01-08T07:38:54.427Z,539.00
2023-01-08T07:39:54.396Z,529.00
2023-01-08T07:40:54.464Z,529.00
2023-01-08T07:41:54.343Z,525.00
2023-01-08T07:42:54.318Z,526.00
2023-01-08T07:43:54.279Z,534.00
2023-01-08T07:44:54.242Z,534.00
2023-01-08T07:45:54.210Z,530.00
2023-01-08T07:46:54.216Z,532.00
2023-01-08T07:47:54.153Z,525.00
2023-01-08T07:48:55.069Z,520.00
2023-01-08T07:49:54.073Z,525.00
2023-01-08T07:50:54.089Z,528.00
2023-01-08T07:51:54.073Z,526.00
2023-01-08T07:52:54.042Z,532.00
2023-01-08T07:53:53.969Z,534.00
2023-01-08T07:54:53.885Z,513.00
2023-01-08T07:55:53.847Z,534.00
2023-01-08T07:56:53.898Z,520.00
2023-01-08T07:57:53.785Z,527.00
2023-01-08T07:58:53.751Z,529.00
2023-01-08T07:59:53.716Z,534.00
2023-01-08T08:00:53.685Z,529.00
2023-01-08T08:01:53.800Z,525.00
2023-01-08T08:02:53.713Z,522.00
2023-01-08T08:03:53.580Z,530.00
2023-01-08T08:04:53.545Z,527.00
2023-01-08T08:05:53.498Z,530.00
2023-01-08T08:06:53.460Z,525.00
2023-01-08T08:07:53.418Z,525.00
2023-01-08T08:08:53.382Z,525.00
2023-01-08T08:09:53.347Z,520.00
2023-01-08T08:10:53.307Z,518.00
2023-01-08T08:11:53.275Z,517.00
2023-01-08T08:12:53.333Z,521.00
2023-01-08T08:13:55.306Z,523.00
2023-01-08T08:14:53.156Z,521.00
2023-01-08T08:15:53.123Z,524.00
2023-01-08T08:16:53.063Z,522.00
2023-01-08T08:17:53.035Z,518.00
2023-01-08T08:18:52.990Z,516.00
2023-01-08T08:19:52.959Z,518.00
2023-01-08T08:20:52.942Z,522.00
2023-01-08T08:21:52.892Z,517.00
2023-01-08T08:22:52.843Z,506.00
2023-01-08T08:23:52.866Z,509.00
2023-01-08T08:24:52.770Z,510.00
2023-01-08T08:25:52.762Z,515.00
2023-01-08T08:26:52.726Z,508.00
2023-01-08T08:27:52.702Z,510.00
2023-01-08T08:28:52.752Z,516.00
2023-01-08T08:29:52.635Z,509.00
2023-01-08T08:30:52.651Z,502.00
2023-01-08T08:31:52.588Z,507.00
2023-01-08T08:32:52.536Z,504.00
2023-01-08T08:33:52.506Z,519.00
2023-01-08T08:34:52.478Z,521.00
2023-01-08T08:35:52.449Z,521.00
2023-01-08T08:36:52.407Z,526.00
2023-01-08T08:37:52.375Z,527.00
2023-01-08T08:38:52.342Z,522.00
2023-01-08T08:39:52.324Z,532.00
2023-01-08T08:40:52.285Z,532.00
2023-01-08T08:41:52.260Z,529.00
2023-01-08T08:42:52.221Z,530.00
2023-01-08T08:43:52.182Z,531.00
2023-01-08T08:44:52.235Z,536.00
2023-01-08T08:45:52.118Z,531.00
2023-01-08T08:46:52.141Z,520.00
2023-01-08T08:47:52.035Z,520.00
2023-01-08T08:48:52.020Z,521.00
2023-01-08T08:49:52.004Z,527.00
2023-01-08T08:50:51.945Z,535.00
2023-01-08T08:51:52.102Z,532.00
2023-01-08T08:52:51.906Z,525.00
2023-01-08T08:53:52.609Z,529.00
2023-01-08T08:54:51.863Z,531.00
2023-01-08T08:55:51.806Z,533.00
2023-01-08T08:56:51.785Z,532.00
2023-01-08T08:57:51.742Z,538.00
2023-01-08T08:58:51.702Z,545.00
2023-01-08T08:59:51.630Z,538.00
2023-01-08T09:00:51.687Z,539.00
2023-01-08T09:01:51.754Z,540.00
2023-01-08T09:02:51.673Z,544.00
2023-01-08T09:03:51.523Z,542.00
2023-01-08T09:04:51.460Z,540.00
2023-01-08T09:05:51.431Z,547.00
2023-01-08T09:06:51.430Z,531.00
2023-01-08T09:07:51.372Z,542.00
2023-01-08T09:08:51.335Z,543.00
2023-01-08T09:09:51.288Z,543.00
2023-01-08T09:10:51.264Z,541.00
2023-01-08T09:11:51.244Z,542.00
2023-01-08T09:12:51.199Z,542.00
2023-01-08T09:13:51.163Z,540.00
2023-01-08T09:14:51.121Z,550.00
2023-01-08T09:15:51.110Z,552.00
2023-01-08T09:16:51.138Z,535.00
2023-01-08T09:17:51.022Z,543.00
2023-01-08T09:18:50.977Z,551.00
2023-01-08T09:19:50.943Z,545.00
2023-01-08T09:20:50.912Z,545.00
2023-01-08T09:21:50.882Z,553.00
2023-01-08T09:22:50.847Z,555.00
2023-01-08T09:23:50.819Z,548.00
2023-01-08T09:24:50.757Z,551.00
2023-01-08T09:25:50.734Z,544.00
2023-01-08T09:26:50.714Z,559.00
2023-01-08T09:27:50.664Z,545.00
2023-01-08T09:28:50.625Z,550.00
2023-01-08T09:29:50.593Z,545.00
2023-01-08T09:30:50.559Z,543.00
2023-01-08T09:31:50.590Z,541.00
2023-01-08T09:32:50.564Z,534.00
2023-01-08T09:33:50.446Z,549.00
2023-01-08T09:34:50.408Z,543.00
2023-01-08T09:35:50.384Z,543.00
2023-01-08T09:36:50.334Z,530.00
2023-01-08T09:37:50.297Z,539.00
2023-01-08T09:38:50.256Z,542.00
2023-01-08T09:39:57.686Z,539.00
2023-01-08T09:40:51.192Z,539.00
2023-01-08T09:41:50.156Z,540.00
2023-01-08T09:42:50.128Z,536.00
2023-01-08T09:43:50.088Z,537.00
2023-01-08T09:44:50.064Z,539.00
2023-01-08T09:45:50.034Z,537.00
2023-01-08T09:46:49.988Z,536.00
2023-01-08T09:47:49.941Z,546.00
2023-01-08T09:48:50.002Z,544.00
2023-01-08T09:49:49.880Z,539.00
2023-01-08T09:50:49.840Z,544.00
2023-01-08T09:51:49.799Z,530.00
2023-01-08T09:52:49.766Z,541.00
2023-01-08T09:53:49.735Z,540.00
2023-01-08T09:54:49.700Z,541.00
2023-01-08T09:55:53.630Z,546.00
2023-01-08T09:56:50.624Z,546.00
2023-01-08T09:57:49.614Z,546.00
2023-01-08T09:58:49.565Z,546.00
2023-01-08T09:59:49.517Z,546.00
2023-01-08T10:00:49.540Z,547.00
2023-01-08T10:01:49.565Z,545.00
2023-01-08T10:02:49.418Z,548.00
2023-01-08T10:03:49.331Z,544.00
2023-01-08T10:04:49.275Z,532.00
2023-01-08T10:05:49.245Z,533.00
2023-01-08T10:06:49.195Z,537.00
2023-01-08T10:07:49.145Z,531.00
2023-01-08T10:08:49.119Z,533.00
2023-01-08T10:09:49.082Z,541.00
2023-01-08T10:10:49.026Z,538.00
2023-01-08T10:11:48.998Z,519.00
2023-01-08T10:12:48.955Z,530.00
2023-01-08T10:13:48.916Z,529.00
2023-01-08T10:14:48.920Z,530.00
2023-01-08T10:15:48.848Z,532.00
2023-01-08T10:16:48.812Z,531.00
2023-01-08T10:17:49.634Z,529.00
2023-01-08T10:18:48.796Z,540.00
2023-01-08T10:19:48.775Z,532.00
2023-01-08T10:20:48.771Z,538.00
2023-01-08T10:21:48.657Z,538.00
2023-01-08T10:22:48.625Z,536.00
2023-01-08T10:23:48.570Z,534.00
2023-01-08T10:24:48.540Z,526.00
2023-01-08T10:25:48.503Z,537.00
2023-01-08T10:26:48.477Z,535.00
2023-01-08T10:27:48.494Z,536.00
2023-01-08T10:28:48.491Z,540.00
2023-01-08T10:29:48.407Z,531.00
2023-01-08T10:30:48.335Z,535.00
2023-01-08T10:31:48.335Z,537.00
2023-01-08T10:32:48.236Z,534.00
2023-01-08T10:33:48.197Z,533.00
2023-01-08T10:34:48.178Z,536.00
2023-01-08T10:35:48.127Z,541.00
2023-01-08T10:36:48.084Z,541.00
2023-01-08T10:37:48.038Z,539.00
2023-01-08T10:38:48.023Z,543.00
2023-01-08T10:39:47.974Z,539.00
2023-01-08T10:40:47.949Z,533.00
2023-01-08T10:41:47.890Z,522.00
2023-01-08T10:42:47.852Z,527.00
2023-01-08T10:43:47.819Z,538.00
2023-01-08T10:44:47.786Z,540.00
2023-01-08T10:45:47.793Z,533.00
2023-01-08T10:46:47.740Z,532.00
2023-01-08T10:47:47.680Z,533.00
2023-01-08T10:48:47.645Z,532.00
2023-01-08T10:49:47.631Z,525.00
2023-01-08T10:50:47.576Z,526.00
2023-01-08T10:51:47.541Z,532.00
2023-01-08T10:52:47.606Z,520.00
2023-01-08T10:53:47.476Z,534.00
2023-01-08T10:54:47.445Z,536.00
2023-01-08T10:55:47.413Z,532.00
2023-01-08T10:56:47.365Z,530.00
2023-01-08T10:57:47.318Z,534.00
2023-01-08T10:58:47.315Z,545.00
2023-01-08T10:59:47.262Z,535.00
2023-01-08T11:00:47.250Z,543.00
2023-01-08T11:01:47.333Z,536.00
2023-01-08T11:02:47.228Z,531.00
2023-01-08T11:03:47.118Z,541.00
2023-01-08T11:04:47.094Z,523.00
2023-01-08T11:05:47.059Z,529.00
2023-01-08T11:06:47.023Z,537.00
2023-01-08T11:07:46.989Z,538.00
2023-01-08T11:08:46.955Z,539.00
2023-01-08T11:09:46.925Z,535.00
2023-01-08T11:10:46.897Z,538.00
2023-01-08T11:11:46.843Z,536.00
2023-01-08T11:12:46.833Z,534.00
2023-01-08T11:13:46.776Z,539.00
2023-01-08T11:14:46.765Z,531.00
2023-01-08T11:15:46.708Z,543.00
2023-01-08T11:16:46.679Z,527.00
2023-01-08T11:17:46.641Z,522.00
2023-01-08T11:18:46.606Z,526.00
2023-01-08T11:19:46.584Z,537.00
2023-01-08T11:20:46.548Z,509.00
2023-01-08T11:21:46.530Z,516.00
2023-01-08T11:22:46.494Z,536.00
2023-01-08T11:23:46.450Z,537.00
2023-01-08T11:24:46.431Z,536.00
2023-01-08T11:25:46.384Z,519.00
2023-01-08T11:26:46.387Z,517.00
2023-01-08T11:27:46.311Z,520.00
2023-01-08T11:28:46.274Z,529.00
2023-01-08T11:29:46.246Z,526.00
2023-01-08T11:30:46.221Z,520.00
2023-01-08T11:31:46.200Z,531.00
2023-01-08T11:32:46.115Z,524.00
2023-01-08T11:33:46.077Z,524.00
2023-01-08T11:34:46.050Z,532.00
2023-01-08T11:35:46.015Z,523.00
2023-01-08T11:36:45.972Z,520.00
2023-01-08T11:37:45.934Z,522.00
2023-01-08T11:38:45.892Z,532.00
2023-01-08T11:39:45.856Z,532.00
2023-01-08T11:40:45.814Z,535.00
2023-01-08T11:41:45.781Z,531.00
2023-01-08T11:42:45.754Z,532.00
2023-01-08T11:43:45.712Z,536.00
2023-01-08T11:44:45.688Z,514.00
2023-01-08T11:45:45.670Z,531.00
2023-01-08T11:46:45.596Z,535.00
2023-01-08T11:47:45.554Z,543.00
2023-01-08T11:48:45.523Z,539.00
2023-01-08T11:49:45.496Z,532.00
2023-01-08T11:50:45.470Z,539.00
2023-01-08T11:51:45.418Z,540.00
2023-01-08T11:52:45.399Z,539.00
2023-01-08T11:53:45.355Z,535.00
2023-01-08T11:54:45.325Z,522.00
2023-01-08T11:55:45.304Z,532.00
2023-01-08T11:56:45.257Z,519.00
2023-01-08T11:57:45.225Z,530.00
2023-01-08T11:58:45.195Z,527.00
2023-01-08T11:59:45.160Z,525.00
2023-01-08T12:00:45.128Z,528.00
2023-01-08T12:01:45.155Z,525.00
2023-01-08T12:02:45.039Z,525.00
2023-01-08T12:03:45.005Z,533.00
2023-01-08T12:04:44.966Z,524.00
2023-01-08T12:05:44.935Z,524.00
2023-01-08T12:06:44.993Z,526.00
2023-01-08T12:07:44.951Z,528.00
2023-01-08T12:08:44.914Z,527.00
2023-01-08T12:09:44.782Z,518.00
2023-01-08T12:10:44.865Z,516.00
2023-01-08T12:11:44.730Z,534.00
2023-01-08T12:12:44.678Z,531.00
2023-01-08T12:13:44.636Z,522.00
2023-01-08T12:14:44.609Z,535.00
2023-01-08T12:15:44.560Z,526.00
2023-01-08T12:16:44.567Z,527.00
2023-01-08T12:17:44.493Z,531.00
2023-01-08T12:18:44.460Z,532.00
2023-01-08T12:19:44.418Z,525.00
2023-01-08T12:20:44.384Z,515.00
2023-01-08T12:21:44.362Z,525.00
2023-01-08T12:22:44.357Z,528.00
2023-01-08T12:23:44.277Z,504.00
2023-01-08T12:24:44.234Z,515.00
2023-01-08T12:25:44.202Z,511.00
2023-01-08T12:26:44.162Z,500.00
2023-01-08T12:27:57.605Z,508.00
2023-01-08T12:28:45.090Z,507.00
2023-01-08T12:29:44.055Z,510.00
2023-01-08T12:30:44.031Z,510.00
2023-01-08T12:31:46.380Z,513.00
2023-01-08T12:32:43.957Z,509.00
2023-01-08T12:33:43.907Z,510.00
2023-01-08T12:34:43.899Z,514.00
2023-01-08T12:35:43.848Z,522.00
2023-01-08T12:36:43.824Z,530.00
2023-01-08T12:37:43.764Z,531.00
2023-01-08T12:38:43.728Z,529.00
2023-01-08T12:39:43.695Z,524.00
2023-01-08T12:40:43.665Z,539.00
2023-01-08T12:41:43.643Z,532.00
2023-01-08T12:42:47.302Z,531.00
2023-01-08T12:43:44.549Z,532.00
2023-01-08T12:44:43.538Z,533.00
2023-01-08T12:45:43.538Z,535.00
2023-01-08T12:46:43.474Z,543.00
2023-01-08T12:47:43.429Z,554.00
2023-01-08T12:48:43.398Z,551.00
2023-01-08T12:49:43.385Z,537.00
2023-01-08T12:50:43.339Z,544.00
2023-01-08T12:51:43.307Z,530.00
2023-01-08T12:52:43.272Z,536.00
2023-01-08T12:53:43.246Z,542.00
2023-01-08T12:54:43.207Z,549.00
2023-01-08T12:55:43.151Z,548.00
2023-01-08T12:56:43.123Z,549.00
2023-01-08T12:57:43.088Z,556.00
2023-01-08T12:58:43.079Z,551.00
2023-01-08T12:59:43.013Z,557.00
2023-01-08T13:00:42.995Z,558.00
2023-01-08T13:01:42.998Z,555.00
2023-01-08T13:13:42.471Z,570.00
2023-01-08T13:14:42.430Z,561.00
2023-01-08T13:15:42.401Z,564.00
2023-01-08T13:16:42.491Z,563.00
2023-01-08T13:17:42.326Z,576.00
2023-01-08T13:18:42.288Z,575.00
2023-01-08T13:19:42.239Z,570.00
2023-01-08T13:20:42.206Z,571.00
2023-01-08T13:21:42.192Z,571.00
2023-01-08T13:22:42.130Z,575.00
2023-01-08T13:23:42.103Z,576.00
2023-01-08T13:24:42.061Z,572.00
2023-01-08T13:25:42.036Z,573.00
2023-01-08T13:26:41.998Z,569.00
2023-01-08T13:27:41.964Z,569.00
2023-01-08T13:28:41.929Z,567.00
2023-01-08T13:29:41.884Z,564.00
2023-01-08T13:30:41.849Z,563.00
2023-01-08T13:31:41.832Z,555.00
2023-01-08T13:32:41.778Z,548.00
2023-01-08T13:33:41.760Z,539.00
2023-01-08T13:34:41.676Z,550.00
2023-01-08T13:35:41.637Z,554.00
2023-01-08T13:36:41.609Z,551.00
2023-01-08T13:37:41.578Z,561.00
2023-01-08T13:38:41.524Z,556.00
2023-01-08T13:39:41.490Z,547.00
2023-01-08T13:40:41.456Z,554.00
2023-01-08T13:41:41.425Z,554.00
2023-01-08T13:42:41.395Z,550.00
2023-01-08T13:43:41.344Z,557.00
2023-01-08T13:44:41.342Z,547.00
2023-01-08T13:45:41.313Z,533.00
2023-01-08T13:46:41.252Z,537.00
2023-01-08T13:47:41.220Z,539.00
2023-01-08T13:48:41.180Z,546.00
2023-01-08T13:49:41.164Z,550.00
2023-01-08T13:50:41.117Z,546.00
2023-01-08T13:51:41.085Z,546.00
2023-01-08T13:52:41.055Z,544.00
2023-01-08T13:53:41.024Z,537.00
2023-01-08T13:54:40.999Z,549.00
2023-01-08T13:55:40.959Z,532.00
2023-01-08T13:56:40.927Z,527.00
2023-01-08T13:57:40.905Z,535.00
2023-01-08T13:58:40.869Z,539.00
2023-01-08T13:59:40.838Z,529.00
2023-01-08T14:00:40.806Z,537.00
2023-01-08T14:01:40.951Z,528.00
2023-01-08T14:02:40.790Z,544.00
2023-01-08T14:03:40.724Z,542.00
2023-01-08T14:04:40.669Z,542.00
2023-01-08T14:05:40.642Z,540.00
2023-01-08T14:06:40.614Z,541.00
2023-01-08T14:07:40.593Z,529.00
2023-01-08T14:08:40.552Z,537.00
2023-01-08T14:09:40.532Z,542.00
2023-01-08T14:10:40.493Z,536.00
2023-01-08T14:11:40.469Z,534.00
2023-01-08T14:12:40.444Z,524.00
2023-01-08T14:13:40.404Z,531.00
2023-01-08T14:14:40.365Z,543.00
2023-01-08T14:15:40.341Z,534.00
2023-01-08T14:16:40.398Z,539.00
2023-01-08T14:17:40.287Z,538.00
2023-01-08T14:18:40.249Z,540.00
2023-01-08T14:19:40.210Z,533.00
2023-01-08T14:20:40.172Z,533.00
2023-01-08T14:21:40.146Z,533.00
2023-01-08T14:22:40.111Z,534.00
2023-01-08T14:23:40.081Z,533.00
2023-01-08T14:24:40.051Z,520.00
2023-01-08T14:25:40.036Z,535.00
2023-01-08T14:26:39.986Z,536.00
2023-01-08T14:27:39.956Z,542.00
2023-01-08T14:28:39.924Z,533.00
2023-01-08T14:29:39.909Z,523.00
2023-01-08T14:30:39.877Z,525.00
2023-01-08T14:31:39.872Z,527.00
2023-01-08T14:32:39.819Z,535.00
2023-01-08T14:33:39.783Z,527.00
2023-01-08T14:34:39.753Z,519.00
2023-01-08T14:35:39.720Z,524.00
2023-01-08T14:36:39.687Z,525.00
2023-01-08T14:37:39.659Z,528.00
2023-01-08T14:38:39.625Z,522.00
2023-01-08T14:39:39.591Z,499.00
2023-01-08T14:40:39.554Z,523.00
2023-01-08T14:41:39.523Z,538.00
2023-01-08T14:42:39.511Z,534.00
2023-01-08T14:43:39.466Z,531.00
2023-01-08T14:44:42.348Z,533.00
2023-01-08T14:45:39.434Z,545.00
2023-01-08T14:46:39.361Z,539.00
2023-01-08T14:47:39.328Z,540.00
2023-01-08T14:48:39.312Z,540.00
2023-01-08T14:49:39.262Z,533.00
2023-01-08T14:50:39.237Z,528.00
2023-01-08T14:51:39.197Z,532.00
2023-01-08T14:52:39.167Z,538.00
2023-01-08T14:53:39.142Z,532.00
2023-01-08T14:54:39.109Z,539.00
2023-01-08T14:55:39.068Z,528.00
2023-01-08T14:56:39.043Z,536.00
2023-01-08T14:57:39.746Z,545.00
2023-01-08T14:58:39.013Z,523.00
2023-01-08T14:59:39.006Z,535.00
2023-01-08T15:00:38.964Z,521.00
2023-01-08T15:01:39.102Z,526.00
2023-01-08T15:02:39.787Z,535.00
2023-01-08T15:03:38.990Z,539.00
2023-01-08T15:04:38.894Z,541.00
2023-01-08T15:05:38.726Z,532.00
2023-01-08T15:06:38.707Z,529.00
2023-01-08T15:07:38.685Z,516.00
2023-01-08T15:08:38.618Z,523.00
2023-01-08T15:09:38.615Z,532.00
2023-01-08T15:10:38.563Z,520.00
2023-01-08T15:11:38.528Z,531.00
2023-01-08T15:12:38.495Z,527.00
2023-01-08T15:13:38.494Z,526.00
2023-01-08T15:14:38.427Z,525.00
2023-01-08T15:15:38.396Z,515.00
2023-01-08T15:16:38.443Z,514.00
2023-01-08T15:17:38.345Z,515.00
2023-01-08T15:18:38.283Z,517.00
2023-01-08T15:19:38.259Z,523.00
2023-01-08T15:20:38.219Z,524.00
2023-01-08T15:21:38.193Z,523.00
2023-01-08T15:22:38.150Z,526.00
2023-01-08T15:23:38.109Z,528.00
2023-01-08T15:24:38.076Z,530.00
2023-01-08T15:25:38.057Z,533.00
2023-01-08T15:26:38.023Z,537.00
2023-01-08T15:27:37.992Z,521.00
2023-01-08T15:28:37.956Z,530.00
2023-01-08T15:29:37.929Z,536.00
2023-01-08T15:30:37.894Z,528.00
2023-01-08T15:31:37.912Z,532.00
2023-01-08T15:32:37.827Z,525.00
2023-01-08T15:33:37.796Z,528.00
2023-01-08T15:34:37.768Z,528.00
2023-01-08T15:35:37.782Z,502.00
2023-01-08T15:36:37.694Z,514.00
2023-01-08T15:37:37.660Z,514.00
2023-01-08T15:38:37.624Z,517.00
2023-01-08T15:39:37.588Z,516.00
2023-01-08T15:40:37.555Z,516.00
2023-01-08T15:41:37.535Z,525.00
2023-01-08T15:42:37.488Z,531.00
2023-01-08T15:43:37.445Z,537.00
2023-01-08T15:44:37.413Z,538.00